Chichester, NY (12416)

1:16 AM EST on February 07, 2016 (GMT -0500)
Shady | | Change Station
CLOSE
Current Station
Personal Weather Station
Location: Bearsville, NY
Elevation: 1299 ft
Nearby Weather Stations

Elev 1299 ft 42.07 °N, 74.17 °W | Updated 12 minutes ago

Mostly Cloudy
Mostly Cloudy
28.5 °F
Feels Like 28 °F
N
0.0
Wind Variable Wind from NNE
Gusts 0.0 mph

Today
High -- | Low -- °F
--% Chance of Precip.
Yesterday
High -- | Low -- °F
Precip. -- in
Pressure 30.21 in
Visibility 10.0 miles
Clouds Clear
Windchill 28 °F
Dew Point 21 °F
Humidity 73%
Rainfall 0.00 in
Snow Depth Not available.
7:03 AM 5:18 PM
Waning Crescent, 2% visible
METAR KPOU 070553Z AUTO 00000KT 10SM CLR M03/M07 A3021 RMK AO2 SLP229 T10281072 10033 21039 58012
Pressure 30.21 in
Visibility 10.0 miles
Clouds Clear
Windchill 28 °F
Dew Point 21 °F
Humidity 73%
Rainfall 0.00 in
Snow Depth Not available.
7:03 AM 5:18 PM
Waning Crescent, 2% visible
METAR KPOU 070553Z AUTO 00000KT 10SM CLR M03/M07 A3021 RMK AO2 SLP229 T10281072 10033 21039 58012

10-Day Weather Forecast

Almanac

Astronomy

Feb. 07, 2016 Rise Set
Actual Time
Civil Twilight
Nautical Twilight
Astronomical Twilight
Moon
Length of Visible Light
Length of Day
Tomorrow will be .
, % of the Moon is Illuminated

Today's Extremes

State Highs State Lows

Community

WunderPhotos

Upload Photos

1,891,173 photos uploaded!

WunderBlog® & News

Nearby

Air Quality

  Air Quality AQ Index Pollutant
Not available.

Snow Depth

Station Depth Elevation

Earthquake Activity

City Distance Mag. Time & Date
Minimum magnitude displayed is 2.5.

Coastal Water Temperatures

Place Temperature

Stations

Nearby Weather Stations

Station Location Temp. Windchill Dew Point Humidity Wind Precip. Elev Updated Type
                   

Watches & Warnings

There are currently no watches in effect.